createdAt,value
2022-09-12T00:04:16.157Z,86.07
2022-09-12T00:09:17.547Z,86.91
2022-09-12T00:14:19.203Z,87.41
2022-09-12T00:19:20.561Z,86.94
2022-09-12T00:24:21.926Z,86.37
2022-09-12T00:29:23.255Z,86.27
2022-09-12T00:34:24.774Z,87.05
2022-09-12T00:39:26.109Z,87.06
2022-09-12T00:44:27.404Z,86.94
2022-09-12T00:49:31.765Z,88.66
2022-09-12T00:54:41.974Z,87.74
2022-09-12T00:59:52.339Z,90.51
2022-09-12T01:04:53.761Z,89.90
2022-09-12T01:09:55.239Z,87.73
2022-09-12T01:14:56.589Z,87.37
2022-09-12T01:20:18.987Z,87.80
2022-09-12T01:26:01.790Z,88.07
2022-09-12T01:31:15.647Z,89.40
2022-09-12T01:36:45.983Z,88.52
2022-09-12T01:41:54.404Z,90.93
2022-09-12T01:47:11.059Z,88.79
2022-09-12T01:52:22.965Z,90.24
2022-09-12T01:57:31.758Z,90.55
2022-09-12T02:02:39.633Z,88.86
2022-09-12T02:07:51.414Z,88.76
2022-09-12T02:12:59.413Z,88.78
2022-09-12T02:18:04.493Z,88.54
2022-09-12T02:23:10.997Z,89.60
2022-09-12T02:28:18.467Z,89.25
2022-09-12T02:33:45.661Z,88.49
2022-09-12T02:38:48.501Z,88.90
2022-09-12T02:43:51.536Z,91.22
2022-09-12T02:48:54.203Z,89.30
2022-09-12T02:53:55.921Z,90.94
2022-09-12T02:59:04.727Z,89.95
2022-09-12T03:04:11.946Z,89.17
2022-09-12T03:09:47.226Z,88.41
2022-09-12T03:15:01.634Z,88.68
2022-09-12T03:20:15.356Z,89.98
2022-09-12T03:25:25.761Z,93.85
2022-09-12T03:30:27.455Z,93.37
2022-09-12T03:35:29.902Z,91.20
2022-09-12T03:40:31.238Z,89.51
2022-09-12T03:45:32.609Z,89.99
2022-09-12T03:50:34.150Z,90.85
2022-09-12T03:55:36.171Z,90.30
2022-09-12T04:00:39.046Z,89.61
2022-09-12T04:05:40.402Z,90.18
2022-09-12T04:10:41.755Z,90.57
2022-09-12T04:15:43.157Z,91.54
2022-09-12T04:20:44.455Z,91.23
2022-09-12T04:25:54.313Z,91.18
2022-09-12T04:30:56.435Z,90.61
2022-09-12T04:36:03.958Z,90.26
2022-09-12T04:41:21.238Z,91.11
2022-09-12T04:46:22.682Z,91.18
2022-09-12T04:51:31.598Z,91.09
2022-09-12T04:56:36.291Z,90.93
2022-09-12T05:01:37.749Z,91.35
2022-09-12T05:06:40.229Z,90.59
2022-09-12T05:12:03.257Z,93.14
2022-09-12T05:17:05.943Z,90.11
2022-09-12T05:22:07.485Z,89.64
2022-09-12T05:27:09.565Z,91.51
2022-09-12T05:32:12.414Z,90.81
2022-09-12T05:37:13.793Z,91.72
2022-09-12T05:42:15.206Z,91.67
2022-09-12T05:47:17.291Z,92.52
2022-09-12T05:52:18.687Z,92.48
2022-09-12T05:57:19.986Z,91.45
2022-09-12T06:02:21.543Z,91.98
2022-09-12T06:07:23.095Z,93.88
2022-09-12T06:12:26.680Z,89.77
2022-09-12T06:17:28.077Z,91.68
2022-09-12T06:22:29.458Z,91.30
2022-09-12T06:27:30.902Z,90.71
2022-09-12T06:32:32.318Z,90.99
2022-09-12T06:37:33.665Z,90.07
2022-09-12T06:42:34.915Z,90.87
2022-09-12T06:47:36.270Z,92.26
2022-09-12T06:52:37.591Z,90.66
2022-09-12T06:57:38.981Z,91.42
2022-09-12T07:02:40.446Z,90.38
2022-09-12T07:07:41.881Z,90.75
2022-09-12T07:12:43.260Z,90.49
2022-09-12T07:17:44.547Z,90.52
2022-09-12T07:22:46.600Z,93.01
2022-09-12T07:27:51.098Z,91.66
2022-09-12T07:32:54.043Z,92.51
2022-09-12T07:37:56.149Z,89.99
2022-09-12T07:42:57.534Z,91.72
2022-09-12T07:47:58.882Z,92.99
2022-09-12T07:53:00.354Z,91.96
2022-09-12T07:58:01.701Z,90.58
2022-09-12T08:03:03.745Z,89.84
2022-09-12T08:08:05.614Z,90.04
2022-09-12T08:13:10.709Z,90.32
2022-09-12T08:18:12.295Z,91.33
2022-09-12T08:23:13.681Z,89.98
2022-09-12T08:28:15.067Z,91.26
2022-09-12T08:33:16.735Z,90.52
2022-09-12T08:38:19.615Z,89.03
2022-09-12T08:43:39.184Z,89.04
2022-09-12T08:48:42.241Z,89.03
2022-09-12T08:53:45.251Z,87.90
2022-09-12T08:58:47.426Z,88.55
2022-09-12T09:04:17.293Z,88.00
2022-09-12T09:09:19.655Z,87.20
2022-09-12T09:14:49.023Z,87.28
2022-09-12T09:19:59.702Z,86.80
2022-09-12T09:25:07.927Z,86.84
2022-09-12T09:30:18.799Z,86.10
2022-09-12T09:35:36.646Z,85.23
2022-09-12T09:40:59.334Z,84.91
2022-09-12T09:46:00.777Z,85.17
2022-09-12T09:51:06.997Z,84.49
2022-09-12T09:56:36.067Z,83.31
2022-09-12T10:01:49.320Z,82.45
2022-09-12T10:06:56.945Z,84.59
2022-09-12T10:11:59.391Z,82.94
2022-09-12T10:17:03.979Z,82.39
2022-09-12T10:22:07.411Z,80.51
2022-09-12T10:27:11.713Z,80.61
2022-09-12T10:32:30.547Z,79.31
2022-09-12T10:37:38.811Z,79.80
2022-09-12T10:42:59.641Z,77.80
2022-09-12T10:48:07.635Z,80.76
2022-09-12T10:53:28.908Z,78.99
2022-09-12T10:58:57.200Z,76.62
2022-09-12T11:04:07.982Z,77.33
2022-09-12T11:09:21.898Z,78.38
2022-09-12T11:14:59.657Z,78.57
2022-09-12T11:20:21.781Z,75.83
2022-09-12T11:25:32.222Z,73.90
2022-09-12T11:30:48.392Z,76.94
2022-09-12T11:35:55.197Z,75.63
2022-09-12T11:41:11.431Z,77.43
2022-09-12T11:46:22.378Z,72.73
2022-09-12T11:51:35.618Z,70.96
2022-09-12T11:56:42.930Z,72.79
2022-09-12T12:01:48.738Z,75.39
2022-09-12T12:06:58.082Z,74.28
2022-09-12T12:12:04.690Z,72.96
2022-09-12T12:17:19.993Z,73.02
2022-09-12T12:22:23.992Z,72.19
2022-09-12T12:28:11.445Z,68.93
2022-09-12T12:33:15.344Z,72.37
2022-09-12T12:38:33.157Z,73.84
2022-09-12T12:43:34.649Z,70.69
2022-09-12T12:48:46.720Z,67.41
2022-09-12T12:53:48.192Z,64.67
2022-09-12T12:58:49.578Z,67.21
2022-09-12T13:04:12.293Z,67.00
2022-09-12T13:09:24.206Z,70.81
2022-09-12T13:14:41.583Z,64.83
2022-09-12T13:19:43.871Z,63.56
2022-09-12T13:24:52.284Z,67.04
2022-09-12T13:30:15.120Z,65.53
2022-09-12T13:35:34.554Z,68.51
2022-09-12T13:40:47.814Z,64.07
2022-09-12T13:45:50.600Z,64.59
2022-09-12T13:50:58.041Z,67.33
2022-09-12T13:56:00.747Z,70.13
2022-09-12T14:01:07.115Z,64.31
2022-09-12T14:06:08.509Z,64.06
2022-09-12T14:11:11.681Z,63.56
2022-09-12T14:16:15.324Z,66.41
2022-09-12T14:21:26.395Z,62.64
2022-09-12T14:26:34.064Z,63.01
2022-09-12T14:31:37.694Z,65.38
2022-09-12T14:36:55.851Z,64.49
2022-09-12T14:42:07.658Z,58.60
2022-09-12T14:47:22.589Z,62.23
2022-09-12T14:52:34.169Z,66.28
2022-09-12T14:57:39.293Z,64.11
2022-09-12T15:02:42.522Z,62.35
2022-09-12T15:07:56.075Z,59.80
2022-09-12T15:13:28.433Z,65.60
2022-09-12T15:18:29.994Z,63.20
2022-09-12T15:23:47.486Z,66.41
2022-09-12T15:28:50.524Z,64.30
2022-09-12T15:33:52.670Z,61.39
2022-09-12T15:38:54.866Z,65.46
2022-09-12T15:43:56.687Z,60.53
2022-09-12T15:48:58.102Z,62.48
2022-09-12T15:54:02.171Z,60.98
2022-09-12T15:59:03.539Z,64.43
2022-09-12T16:04:20.947Z,58.65
2022-09-12T16:09:23.894Z,58.20
2022-09-12T16:14:25.222Z,57.44
2022-09-12T16:19:26.579Z,57.55
2022-09-12T16:24:27.934Z,61.69
2022-09-12T16:29:29.331Z,58.80
2022-09-12T16:34:30.697Z,61.03
2022-09-12T16:39:32.163Z,60.15
2022-09-12T16:44:33.626Z,58.38
2022-09-12T16:49:34.953Z,63.36
2022-09-12T16:54:36.306Z,63.21
2022-09-12T16:59:37.702Z,64.47
2022-09-12T17:04:39.711Z,64.15
2022-09-12T17:09:44.148Z,61.92
2022-09-12T17:14:47.580Z,63.79
2022-09-12T17:19:48.983Z,63.74
2022-09-12T17:24:50.361Z,63.31
2022-09-12T17:29:51.769Z,64.17
2022-09-12T17:34:53.178Z,63.71
2022-09-12T17:39:54.723Z,66.36
2022-09-12T17:44:58.213Z,68.14
2022-09-12T17:50:20.737Z,66.42
2022-09-12T17:55:21.429Z,68.02
2022-09-12T18:00:42.860Z,68.03
2022-09-12T18:05:55.389Z,68.08
2022-09-12T18:11:05.210Z,68.33
2022-09-12T18:16:09.532Z,67.99
2022-09-12T18:21:12.110Z,67.10
2022-09-12T18:26:14.233Z,68.34
2022-09-12T18:31:17.558Z,67.98
2022-09-12T18:36:19.519Z,68.52
2022-09-12T18:41:22.653Z,68.49
2022-09-12T18:46:24.977Z,68.26
2022-09-12T18:51:31.820Z,68.61
2022-09-12T18:56:35.892Z,68.77
2022-09-12T19:01:38.622Z,68.79
2022-09-12T19:06:42.620Z,68.97
2022-09-12T19:11:49.510Z,69.46
2022-09-12T19:16:52.093Z,69.90
2022-09-12T19:21:53.827Z,70.07
2022-09-12T19:26:55.213Z,70.18
2022-09-12T19:31:57.310Z,70.20
2022-09-12T19:36:59.385Z,70.67
2022-09-12T19:42:00.799Z,71.04
2022-09-12T19:47:02.196Z,71.78
2022-09-12T19:52:03.690Z,70.82
2022-09-12T19:57:05.112Z,70.57
2022-09-12T20:02:06.546Z,71.13
2022-09-12T20:07:07.969Z,73.31
2022-09-12T20:12:09.302Z,72.42
2022-09-12T20:17:10.704Z,72.33
2022-09-12T20:22:12.085Z,71.97
2022-09-12T20:27:13.453Z,73.80
2022-09-12T20:32:14.802Z,71.92
2022-09-12T20:37:16.364Z,72.34
2022-09-12T20:42:17.911Z,72.59
2022-09-12T20:47:19.507Z,72.88
2022-09-12T20:52:20.950Z,73.26
2022-09-12T20:57:23.134Z,72.99
2022-09-12T21:02:24.686Z,72.54
2022-09-12T21:07:26.240Z,72.52
2022-09-12T21:12:28.111Z,72.52
2022-09-12T21:17:29.455Z,72.24
2022-09-12T21:22:30.884Z,72.88
2022-09-12T21:27:32.294Z,72.13
2022-09-12T21:32:36.816Z,72.54
2022-09-12T21:37:38.176Z,73.01
2022-09-12T21:42:39.544Z,72.63
2022-09-12T21:47:40.891Z,72.38
2022-09-12T21:52:42.574Z,72.34
2022-09-12T21:57:44.046Z,72.80
2022-09-12T22:02:46.845Z,72.84
2022-09-12T22:07:48.362Z,73.24
2022-09-12T22:12:49.692Z,74.31
2022-09-12T22:17:51.405Z,73.05
2022-09-12T22:23:11.510Z,74.05
2022-09-12T22:28:13.698Z,74.01
2022-09-12T22:33:15.399Z,74.28
2022-09-12T22:38:16.766Z,73.63
2022-09-12T22:43:18.108Z,74.05
2022-09-12T22:48:19.465Z,73.52
2022-09-12T22:53:20.821Z,73.93
2022-09-12T22:58:22.263Z,73.65
2022-09-12T23:03:23.717Z,73.35
2022-09-12T23:08:29.406Z,74.04
2022-09-12T23:13:31.051Z,73.27
2022-09-12T23:18:35.937Z,74.89
2022-09-12T23:23:38.377Z,74.09
2022-09-12T23:28:41.301Z,74.41
2022-09-12T23:33:44.107Z,74.11
2022-09-12T23:38:46.688Z,74.06
2022-09-12T23:43:48.326Z,74.73
2022-09-12T23:48:50.121Z,73.92
2022-09-12T23:53:51.550Z,74.10
2022-09-12T23:58:52.950Z,74.57
